Thursday, November 15, 2018, 1:58 AM GMT
Back to Local

CWIT, Saint Clothilde Automated Reporting Station

Location: , , Canada Lat: 45.167
Local Time: 1:58 AM GMT ( 1:58 GMT) Lon: -73.683
Time Zone: GMT Elev: 170 ft

Show me the last for .
Show Coded

Time T Td Feel RH Dir Speed Gust Alt SLP Vis Weather Sky Remarks
2018-11-15 01:00 16 6 10 62 280° 3 - - 30.58 0 None
2018-11-15 00:00 17 8 8 66 300° 6 - - 30.55 0 None
2018-11-14 23:00 18 6 9 59 280° 6 - - 30.54 0 None
2018-11-14 22:00 18 6 9 57 300° 7 - - 30.52 0 None
2018-11-14 21:00 18 5 3 56 290° 10 17 - 30.48 0 Peak wind: 21 mph (19 kts) from 280° at 23 min
2018-11-14 20:00 19 4 2 52 290° 13 21 - 30.46 0 Peak wind: 24 mph (21 kts) from 280° at 07 min
2018-11-14 19:00 20 5 5 51 290° 12 20 - 30.43 0 Peak wind: 26 mph (23 kts) from 300° at 46 min
2018-11-14 18:00 18 5 0 55 290° 14 25 - 30.40 0 Peak wind: 26 mph (23 kts) from 290° at 34 min
2018-11-14 17:00 18 3 0 50 300° 13 25 - 30.39 0 Peak wind: 27 mph (24 kts) from 280° at 12 min
2018-11-14 16:00 17 3 0 54 300° 12 21 - 30.37 0 Peak wind: 25 mph (22 kts) from 290° at 39 min
2018-11-14 15:00 17 2 -1 52 290° 14 24 - 30.35 0 Peak wind: 25 mph (22 kts) from 320° at 21 min
2018-11-14 14:00 15 4 -2 61 310° 13 20 - 30.33 0 Peak wind: 23 mph (20 kts) from 310° at 12 min
2018-11-14 13:00 14 4 -3 61 310° 12 18 - 30.30 0 Peak wind: 20 mph (18 kts) from 300° at 39 min
2018-11-14 12:00 15 7 3 72 320° 9 - - 30.26 0 None
2018-11-14 11:00 15 8 4 71 300° 8 - - 30.22 0 None
2018-11-14 10:00 16 6 4 63 300° 9 - - 30.19 0 None
2018-11-14 09:00 16 6 6 64 280° 7 - - 30.16 0 None
2018-11-14 08:00 17 6 6 61 290° 8 - - 30.14 0 None
2018-11-14 07:00 18 5 1 57 300° 12 20 - 30.13 0 Peak wind: 20 mph (18 kts) from 300° at 38 min
2018-11-14 06:00 20 6 10 53 300° 9 - - 30.11 0 Peak wind: 24 mph (21 kts) from 310° at 25 min
2018-11-14 05:00 20 7 4 57 290° 12 21 - 30.10 0 Peak wind: 21 mph (19 kts) from 280° at 42 min
2018-11-14 04:00 20 9 6 60 290° 10 17 - 30.08 0 Peak wind: 24 mph (21 kts) from 300° at 15 min
2018-11-14 03:00 21 10 4 60 300° 15 26 - 30.07 0 Peak wind: 28 mph (25 kts) from 270° at 42 min
2018-11-14 02:00 23 11 5 61 300° 16 29 - 30.04 0 Peak wind: 29 mph (26 kts) from 310° at 40 min

Support USWX by starting your Amazon purchase here.